Time;durP1;ratioP1;P1;durP2;ratioP2;P2;SDS_P1;SDS_P2;PMS_P1;PMS_P2;Temp;Humidity;BMP_temperature;BMP_pressure;BME280_temperature;BME280_humidity;BME280_pressure;Samples;Min_cycle;Max_cycle;Signal;HPM_P1;HPM_P2
2023/04/07 00:01:31;;;;;;;12.37;9.47;;;;;;;;;;5049068;28;20216;-79
2023/04/07 00:03:56;;;;;;;12.10;9.53;;;;;;;;;;5043617;28;20168;-78
2023/04/07 00:06:21;;;;;;;12.00;9.47;;;;;;;;;;5045556;28;20178;-78
2023/04/07 00:08:47;;;;;;;13.70;10.20;;;;;;;;;;5046923;28;20185;-78
2023/04/07 00:11:12;;;;;;;12.33;9.60;;;;;;;;;;5074616;28;20185;-79
2023/04/07 00:13:37;;;;;;;11.37;9.20;;;;;;;;;;5047362;28;20205;-79
2023/04/07 00:16:03;;;;;;;13.53;10.63;;;;;;;;;;5045719;28;20193;-78
2023/04/07 00:18:28;;;;;;;13.63;9.83;;;;;;;;;;5048282;28;20209;-78
2023/04/07 00:20:53;;;;;;;11.80;9.33;;;;;;;;;;5080903;28;20208;-79
2023/04/07 00:23:18;;;;;;;11.80;9.60;;;;;;;;;;5044687;28;20180;-78
2023/04/07 00:25:44;;;;;;;13.43;11.27;;;;;;;;;;5078371;28;20260;-79
2023/04/07 00:28:09;;;;;;;13.27;9.30;;;;;;;;;;5073909;28;20208;-78
2023/04/07 00:30:34;;;;;;;13.07;10.20;;;;;;;;;;5080552;28;20269;-78
2023/04/07 00:32:59;;;;;;;12.77;9.57;;;;;;;;;;5044648;28;20186;-78
2023/04/07 00:35:25;;;;;;;12.77;9.97;;;;;;;;;;5079923;28;20257;-78
2023/04/07 00:37:50;;;;;;;13.77;9.87;;;;;;;;;;5050648;28;20259;-79
2023/04/07 00:40:16;;;;;;;12.10;9.40;;;;;;;;;;5044733;28;20177;-79
2023/04/07 00:42:41;;;;;;;12.40;9.30;;;;;;;;;;5053467;28;20240;-78
2023/04/07 00:45:07;;;;;;;10.50;8.80;;;;;;;;;;5048261;28;20171;-78
2023/04/07 00:47:32;;;;;;;11.27;8.40;;;;;;;;;;5064093;28;20178;-78
2023/04/07 00:49:57;;;;;;;11.27;8.77;;;;;;;;;;5047919;28;20233;-78
2023/04/07 00:52:27;;;;;;;9.03;7.27;;;;;;;;;;5079675;28;20238;-78
2023/04/07 00:54:53;;;;;;;9.13;8.00;;;;;;;;;;5047250;28;20177;-79
2023/04/07 00:57:18;;;;;;;9.57;7.47;;;;;;;;;;5064867;28;20198;-78
2023/04/07 00:59:43;;;;;;;9.60;7.17;;;;;;;;;;5067543;28;20164;-78
2023/04/07 01:02:08;;;;;;;11.80;7.57;;;;;;;;;;5052592;28;20186;-78
2023/04/07 01:04:46;;;;;;;8.33;7.53;;;;;;;;;;5049430;28;20182;-78
2023/04/07 01:07:17;;;;;;;7.80;6.60;;;;;;;;;;5051153;28;20188;-78
2023/04/07 01:09:47;;;;;;;9.43;6.70;;;;;;;;;;5050856;28;20212;-78
2023/04/07 01:12:22;;;;;;;8.27;6.70;;;;;;;;;;5049034;28;20207;-79
2023/04/07 01:14:53;;;;;;;7.73;6.87;;;;;;;;;;5048007;28;20375;-78
2023/04/07 01:17:19;;;;;;;7.47;6.57;;;;;;;;;;5081516;28;20206;-78
2023/04/07 01:19:44;;;;;;;7.03;6.27;;;;;;;;;;5064168;28;20280;-78
2023/04/07 01:22:11;;;;;;;8.97;6.50;;;;;;;;;;5072986;28;20177;-78
2023/04/07 01:24:55;;;;;;;8.40;6.87;;;;;;;;;;5052681;28;20177;-78
2023/04/07 01:27:31;;;;;;;8.63;6.40;;;;;;;;;;5051577;28;20196;-78
2023/04/07 01:29:57;;;;;;;10.40;6.23;;;;;;;;;;5046736;28;20184;-79
2023/04/07 01:32:23;;;;;;;8.27;6.53;;;;;;;;;;5049033;28;20260;-78
2023/04/07 01:34:50;;;;;;;6.80;6.13;;;;;;;;;;5049736;28;20269;-78
2023/04/07 01:37:16;;;;;;;9.03;5.73;;;;;;;;;;5042292;28;20252;-78
2023/04/07 01:39:41;;;;;;;7.93;6.40;;;;;;;;;;5063519;28;20252;-78
2023/04/07 01:42:07;;;;;;;6.80;5.10;;;;;;;;;;5075056;28;20220;-78
2023/04/07 01:44:33;;;;;;;7.90;6.40;;;;;;;;;;5047965;28;20170;-78
2023/04/07 01:46:58;;;;;;;7.77;6.03;;;;;;;;;;5045972;28;20232;-78
2023/04/07 01:49:24;;;;;;;8.40;5.60;;;;;;;;;;5051160;28;20258;-78
2023/04/07 01:51:49;;;;;;;8.70;5.83;;;;;;;;;;5044393;28;20241;-78
2023/04/07 01:54:18;;;;;;;7.13;5.87;;;;;;;;;;5039802;28;20208;-78
2023/04/07 01:56:44;;;;;;;11.43;5.83;;;;;;;;;;5050412;28;20196;-78
2023/04/07 01:59:09;;;;;;;9.07;5.33;;;;;;;;;;5065614;28;20232;-78
2023/04/07 02:01:35;;;;;;;5.17;4.40;;;;;;;;;;5058024;28;20164;-78
2023/04/07 02:04:13;;;;;;;5.67;4.90;;;;;;;;;;5019365;28;20231;-78
2023/04/07 02:06:42;;;;;;;6.53;4.90;;;;;;;;;;5044147;28;20196;-78
2023/04/07 02:09:09;;;;;;;6.77;4.97;;;;;;;;;;5043309;28;20189;-78
2023/04/07 02:11:36;;;;;;;6.17;5.57;;;;;;;;;;5063115;28;20217;-78
2023/04/07 02:14:02;;;;;;;6.37;5.37;;;;;;;;;;5048995;28;20295;-78
2023/04/07 02:16:29;;;;;;;4.97;4.47;;;;;;;;;;5048401;28;20250;-78
2023/04/07 02:18:55;;;;;;;6.77;4.60;;;;;;;;;;5049309;28;20219;-78
2023/04/07 02:21:20;;;;;;;6.30;4.73;;;;;;;;;;5047266;28;20188;-78
2023/04/07 02:23:46;;;;;;;5.63;5.03;;;;;;;;;;5082369;28;20181;-78
2023/04/07 02:26:11;;;;;;;5.30;4.80;;;;;;;;;;5043291;28;20193;-78
2023/04/07 02:28:36;;;;;;;6.30;5.43;;;;;;;;;;5047118;28;20169;-78
2023/04/07 02:31:01;;;;;;;6.17;5.17;;;;;;;;;;5067783;28;20275;-78
2023/04/07 02:33:26;;;;;;;5.60;4.83;;;;;;;;;;5048330;28;20179;-78
2023/04/07 02:35:52;;;;;;;5.33;4.83;;;;;;;;;;5044727;28;20192;-79
2023/04/07 02:38:17;;;;;;;4.87;4.37;;;;;;;;;;5042848;28;20254;-78
2023/04/07 02:40:42;;;;;;;7.07;4.43;;;;;;;;;;5058047;28;20355;-78
2023/04/07 02:43:07;;;;;;;6.10;5.00;;;;;;;;;;5042550;28;20356;-78
2023/04/07 02:45:32;;;;;;;5.50;4.80;;;;;;;;;;5041551;28;20201;-78
2023/04/07 02:47:58;;;;;;;7.40;5.33;;;;;;;;;;5048218;28;20208;-78
2023/04/07 02:50:27;;;;;;;5.73;5.13;;;;;;;;;;5042502;28;20230;-78
2023/04/07 02:52:53;;;;;;;5.70;4.80;;;;;;;;;;5063142;28;20188;-78
2023/04/07 02:55:18;;;;;;;5.13;4.60;;;;;;;;;;5080245;28;20218;-78
2023/04/07 02:57:43;;;;;;;7.97;6.20;;;;;;;;;;5042841;28;20258;-78
2023/04/07 03:00:09;;;;;;;6.00;4.97;;;;;;;;;;5048065;28;20173;-78
2023/04/07 03:02:34;;;;;;;6.40;5.63;;;;;;;;;;5070444;28;20174;-78
2023/04/07 03:04:59;;;;;;;6.20;5.60;;;;;;;;;;5039512;28;20177;-79
2023/04/07 03:07:25;;;;;;;6.83;5.07;;;;;;;;;;5048160;28;20189;-78
2023/04/07 03:09:50;;;;;;;6.03;4.63;;;;;;;;;;5047677;28;20176;-79
2023/04/07 03:12:15;;;;;;;6.73;4.80;;;;;;;;;;5049355;28;20177;-78
2023/04/07 03:14:41;;;;;;;6.23;5.33;;;;;;;;;;5070674;28;20188;-78
2023/04/07 03:17:06;;;;;;;8.20;5.30;;;;;;;;;;5047429;28;20205;-78
2023/04/07 03:19:31;;;;;;;5.47;4.73;;;;;;;;;;5063564;28;20185;-79
2023/04/07 03:21:56;;;;;;;9.27;5.10;;;;;;;;;;5043932;28;20206;-78
2023/04/07 03:24:22;;;;;;;6.20;4.93;;;;;;;;;;5046565;28;20181;-78
2023/04/07 03:26:47;;;;;;;6.77;5.03;;;;;;;;;;5042900;28;20182;-78
2023/04/07 03:29:12;;;;;;;6.97;5.00;;;;;;;;;;5045997;28;20174;-78
2023/04/07 03:31:37;;;;;;;6.53;5.13;;;;;;;;;;5046008;28;20178;-78
2023/04/07 03:34:03;;;;;;;8.17;5.00;;;;;;;;;;5044714;28;20190;-78
2023/04/07 03:36:28;;;;;;;6.37;4.53;;;;;;;;;;5043476;28;20169;-78
2023/04/07 03:38:54;;;;;;;5.23;4.63;;;;;;;;;;5069431;28;20197;-78
2023/04/07 03:41:19;;;;;;;7.60;5.10;;;;;;;;;;5048432;28;20173;-79
2023/04/07 03:43:45;;;;;;;6.43;4.87;;;;;;;;;;5051472;28;20205;-79
2023/04/07 03:46:10;;;;;;;7.70;5.37;;;;;;;;;;5048719;28;20238;-79
2023/04/07 03:48:36;;;;;;;5.30;4.70;;;;;;;;;;5048390;28;20184;-78
2023/04/07 03:51:01;;;;;;;6.97;4.90;;;;;;;;;;5046266;28;20234;-79
2023/04/07 03:53:26;;;;;;;5.90;4.70;;;;;;;;;;5045741;28;20176;-79
2023/04/07 03:55:51;;;;;;;5.87;4.73;;;;;;;;;;5063832;28;20229;-78
2023/04/07 03:58:17;;;;;;;5.77;4.83;;;;;;;;;;5047416;28;20259;-78
2023/04/07 04:00:42;;;;;;;7.47;5.10;;;;;;;;;;5046945;28;20170;-78
2023/04/07 04:03:08;;;;;;;6.63;4.60;;;;;;;;;;5051267;28;20179;-78
2023/04/07 04:05:33;;;;;;;7.70;4.73;;;;;;;;;;5066728;28;20179;-78
2023/04/07 04:07:58;;;;;;;5.40;4.70;;;;;;;;;;5084076;28;20180;-78
2023/04/07 04:10:24;;;;;;;8.63;5.47;;;;;;;;;;5050216;28;20180;-78
2023/04/07 04:12:49;;;;;;;5.83;4.40;;;;;;;;;;5051375;28;20173;-78
2023/04/07 04:15:15;;;;;;;7.53;4.70;;;;;;;;;;5052274;28;20184;-78
2023/04/07 04:17:40;;;;;;;8.00;4.67;;;;;;;;;;5067893;28;20202;-78
2023/04/07 04:20:06;;;;;;;5.37;4.53;;;;;;;;;;5067786;28;20215;-78
2023/04/07 04:22:31;;;;;;;6.50;5.40;;;;;;;;;;5079019;28;20227;-78
2023/04/07 04:25:00;;;;;;;6.93;4.80;;;;;;;;;;5050678;28;20184;-78
2023/04/07 04:27:25;;;;;;;7.03;5.40;;;;;;;;;;5075495;28;20178;-78
2023/04/07 04:29:51;;;;;;;5.87;5.10;;;;;;;;;;5046459;28;20231;-79
2023/04/07 04:32:20;;;;;;;5.57;4.83;;;;;;;;;;5079394;28;20239;-78
2023/04/07 04:34:45;;;;;;;6.17;4.57;;;;;;;;;;5045437;28;20189;-78
2023/04/07 04:37:10;;;;;;;6.47;5.33;;;;;;;;;;5041216;28;20198;-79
2023/04/07 04:39:36;;;;;;;10.50;5.50;;;;;;;;;;5051374;28;20177;-78
2023/04/07 04:42:02;;;;;;;6.77;5.13;;;;;;;;;;5051246;28;20226;-78
2023/04/07 04:44:29;;;;;;;5.17;4.67;;;;;;;;;;5049419;28;20180;-78
2023/04/07 04:46:54;;;;;;;6.97;4.80;;;;;;;;;;5071772;28;20168;-79
2023/04/07 04:49:19;;;;;;;7.27;5.30;;;;;;;;;;5049687;28;20300;-78
2023/04/07 04:51:44;;;;;;;5.50;4.47;;;;;;;;;;5044281;28;20180;-78
2023/04/07 04:54:09;;;;;;;6.13;4.90;;;;;;;;;;5050939;28;20242;-78
2023/04/07 04:56:35;;;;;;;7.57;5.33;;;;;;;;;;5044201;28;20180;-78
2023/04/07 04:59:01;;;;;;;8.10;6.10;;;;;;;;;;5061480;28;20185;-78
2023/04/07 05:01:26;;;;;;;8.37;6.07;;;;;;;;;;5076261;28;20189;-79
2023/04/07 05:03:51;;;;;;;8.93;5.73;;;;;;;;;;5039471;28;20173;-78
2023/04/07 05:06:17;;;;;;;9.80;6.13;;;;;;;;;;5080017;28;20177;-78
2023/04/07 05:08:42;;;;;;;6.77;5.40;;;;;;;;;;5046585;28;20227;-79
2023/04/07 05:11:07;;;;;;;5.90;5.00;;;;;;;;;;5069829;28;20186;-78
2023/04/07 05:13:33;;;;;;;6.90;4.63;;;;;;;;;;5081735;28;20181;-78
2023/04/07 05:15:58;;;;;;;5.20;4.70;;;;;;;;;;5048913;28;20173;-78
2023/04/07 05:18:23;;;;;;;8.83;4.93;;;;;;;;;;5045326;28;20240;-78
2023/04/07 05:20:49;;;;;;;6.73;5.10;;;;;;;;;;5044461;28;20180;-79
2023/04/07 05:23:14;;;;;;;7.23;4.63;;;;;;;;;;5047604;28;20182;-79
2023/04/07 05:25:39;;;;;;;7.37;5.33;;;;;;;;;;5079551;28;20237;-78
2023/04/07 05:28:05;;;;;;;5.33;4.53;;;;;;;;;;5051406;28;20177;-78
2023/04/07 05:30:30;;;;;;;7.97;5.63;;;;;;;;;;5079969;28;20246;-78
2023/04/07 05:32:55;;;;;;;6.03;5.10;;;;;;;;;;5044360;28;20212;-78
2023/04/07 05:35:20;;;;;;;8.30;5.13;;;;;;;;;;5043996;28;20217;-78
2023/04/07 05:37:46;;;;;;;6.93;5.37;;;;;;;;;;5051355;28;20233;-78
2023/04/07 05:40:11;;;;;;;5.80;5.20;;;;;;;;;;5043767;28;20186;-78
2023/04/07 05:42:36;;;;;;;8.60;5.50;;;;;;;;;;5052880;28;20196;-78
2023/04/07 05:45:02;;;;;;;6.70;5.33;;;;;;;;;;5050633;28;20280;-78
2023/04/07 05:47:27;;;;;;;7.17;5.23;;;;;;;;;;5073056;28;20178;-79
2023/04/07 05:49:52;;;;;;;8.10;5.57;;;;;;;;;;5063668;28;20223;-78
2023/04/07 05:52:18;;;;;;;5.47;4.97;;;;;;;;;;5039910;28;20196;-78
2023/04/07 05:54:43;;;;;;;6.43;5.70;;;;;;;;;;5065964;28;20185;-78
2023/04/07 05:57:08;;;;;;;6.30;5.50;;;;;;;;;;5049901;28;20206;-78
2023/04/07 05:59:34;;;;;;;8.23;5.17;;;;;;;;;;5060948;28;20171;-79
2023/04/07 06:01:59;;;;;;;8.03;6.00;;;;;;;;;;5044982;28;20183;-78
2023/04/07 06:04:25;;;;;;;6.30;5.50;;;;;;;;;;5049971;28;20181;-78
2023/04/07 06:06:53;;;;;;;9.67;5.80;;;;;;;;;;5080862;28;20208;-78
2023/04/07 06:09:19;;;;;;;7.50;5.47;;;;;;;;;;5043115;28;20223;-79
2023/04/07 06:11:45;;;;;;;20.93;17.47;;;;;;;;;;5065343;28;20210;-78
2023/04/07 06:14:11;;;;;;;6.87;6.17;;;;;;;;;;5080570;28;20216;-78
2023/04/07 06:16:36;;;;;;;8.50;7.70;;;;;;;;;;5049421;28;20182;-79
2023/04/07 06:19:01;;;;;;;19.63;16.40;;;;;;;;;;5071420;28;20181;-79
2023/04/07 06:21:26;;;;;;;12.57;11.47;;;;;;;;;;5046394;28;20174;-79
2023/04/07 06:23:51;;;;;;;7.17;6.57;;;;;;;;;;5058732;28;20186;-79
2023/04/07 06:26:17;;;;;;;8.17;5.60;;;;;;;;;;5044536;28;20168;-79
2023/04/07 06:28:42;;;;;;;7.67;5.87;;;;;;;;;;5049348;28;20188;-79
2023/04/07 06:31:07;;;;;;;6.77;5.07;;;;;;;;;;5045093;28;20183;-78
2023/04/07 06:33:32;;;;;;;6.27;5.67;;;;;;;;;;5042310;28;20178;-79
2023/04/07 06:35:58;;;;;;;6.13;5.53;;;;;;;;;;5066659;28;20297;-78
2023/04/07 06:38:23;;;;;;;8.10;5.27;;;;;;;;;;5041117;28;20216;-79
2023/04/07 06:40:48;;;;;;;5.47;4.97;;;;;;;;;;5047807;28;20244;-79
2023/04/07 06:43:13;;;;;;;5.43;4.30;;;;;;;;;;5041254;28;20212;-79
2023/04/07 06:45:39;;;;;;;5.53;4.90;;;;;;;;;;5064753;28;20183;-79
2023/04/07 06:48:04;;;;;;;5.53;5.03;;;;;;;;;;5044018;28;20180;-78
2023/04/07 06:50:30;;;;;;;5.33;4.53;;;;;;;;;;5050077;28;20307;-79
2023/04/07 06:52:55;;;;;;;5.97;4.67;;;;;;;;;;5049308;28;20181;-78
2023/04/07 06:55:20;;;;;;;5.93;5.13;;;;;;;;;;5048431;28;20181;-79
2023/04/07 06:57:45;;;;;;;5.43;4.93;;;;;;;;;;5048226;28;20208;-78
2023/04/07 07:00:11;;;;;;;6.30;5.60;;;;;;;;;;5061254;28;20166;-79
2023/04/07 07:02:37;;;;;;;6.40;5.80;;;;;;;;;;5042319;28;20181;-79
2023/04/07 07:05:03;;;;;;;7.07;5.30;;;;;;;;;;5071233;28;20177;-79
2023/04/07 07:07:29;;;;;;;6.03;5.23;;;;;;;;;;5048429;28;20485;-79
2023/04/07 07:09:54;;;;;;;8.33;4.60;;;;;;;;;;5049269;28;20173;-79
2023/04/07 07:12:19;;;;;;;5.17;4.30;;;;;;;;;;5045474;28;20222;-79
2023/04/07 07:14:45;;;;;;;5.13;3.77;;;;;;;;;;5073916;28;20197;-79
2023/04/07 07:17:10;;;;;;;6.07;4.13;;;;;;;;;;5046492;28;20213;-79
2023/04/07 07:19:36;;;;;;;5.63;2.97;;;;;;;;;;5052038;28;20170;-79
2023/04/07 07:22:03;;;;;;;6.43;2.70;;;;;;;;;;5064209;28;20202;-79
2023/04/07 07:24:32;;;;;;;6.30;3.47;;;;;;;;;;5081033;28;20205;-79
2023/04/07 07:26:57;;;;;;;2.77;2.00;;;;;;;;;;5047722;28;20186;-79
2023/04/07 07:29:23;;;;;;;5.23;3.10;;;;;;;;;;5078778;28;20186;-79
2023/04/07 07:31:48;;;;;;;6.77;3.50;;;;;;;;;;5044940;28;20171;-79
2023/04/07 07:34:13;;;;;;;4.43;3.10;;;;;;;;;;5044632;28;20174;-79
2023/04/07 07:36:38;;;;;;;6.07;3.80;;;;;;;;;;5061271;28;20175;-79
2023/04/07 07:39:04;;;;;;;5.67;3.70;;;;;;;;;;5042187;28;20208;-79
2023/04/07 07:41:30;;;;;;;4.37;3.50;;;;;;;;;;5045521;28;20166;-79
2023/04/07 07:43:55;;;;;;;5.23;3.37;;;;;;;;;;5078515;28;20230;-79
2023/04/07 07:46:22;;;;;;;5.90;2.80;;;;;;;;;;5066533;28;20180;-79
2023/04/07 07:48:47;;;;;;;4.23;2.90;;;;;;;;;;5077911;28;20182;-79
2023/04/07 07:51:13;;;;;;;4.27;3.47;;;;;;;;;;5044199;28;20233;-79
2023/04/07 07:53:38;;;;;;;9.93;3.97;;;;;;;;;;5052858;28;20174;-79
2023/04/07 07:56:03;;;;;;;5.57;3.60;;;;;;;;;;5047617;28;20297;-79
2023/04/07 07:58:28;;;;;;;5.43;3.57;;;;;;;;;;5041315;28;20191;-79
2023/04/07 08:00:54;;;;;;;4.23;3.80;;;;;;;;;;5045614;28;20186;-80
2023/04/07 08:03:21;;;;;;;6.53;4.00;;;;;;;;;;5079001;28;20179;-79
2023/04/07 08:05:47;;;;;;;4.10;3.50;;;;;;;;;;5047945;28;20175;-80
2023/04/07 08:08:12;;;;;;;4.63;3.90;;;;;;;;;;5071866;28;20189;-79
2023/04/07 08:10:37;;;;;;;4.00;3.60;;;;;;;;;;5045761;28;20186;-79
2023/04/07 08:13:04;;;;;;;3.70;3.13;;;;;;;;;;5076933;28;20190;-79
2023/04/07 08:15:29;;;;;;;5.80;3.90;;;;;;;;;;5048016;28;20272;-80
2023/04/07 08:17:54;;;;;;;4.63;3.90;;;;;;;;;;5075198;28;20239;-79
2023/04/07 08:20:19;;;;;;;4.47;3.87;;;;;;;;;;5044372;28;20171;-79
2023/04/07 08:22:45;;;;;;;4.17;3.77;;;;;;;;;;5046510;28;20180;-79
2023/04/07 08:25:10;;;;;;;4.73;3.17;;;;;;;;;;5038550;28;20175;-80
2023/04/07 08:27:35;;;;;;;4.40;3.63;;;;;;;;;;5073632;28;20184;-79
2023/04/07 08:30:01;;;;;;;4.00;3.60;;;;;;;;;;5048273;28;20175;-79
2023/04/07 08:32:34;;;;;;;2.80;2.60;;;;;;;;;;5047094;28;20174;-79
2023/04/07 08:34:59;;;;;;;4.40;2.93;;;;;;;;;;5042531;28;20182;-80
2023/04/07 08:37:24;;;;;;;4.40;3.20;;;;;;;;;;5051708;28;20210;-79
2023/04/07 08:39:50;;;;;;;3.70;2.43;;;;;;;;;;5074132;28;20174;-79
2023/04/07 08:42:16;;;;;;;3.10;2.80;;;;;;;;;;5045475;28;20186;-80
2023/04/07 08:44:42;;;;;;;3.47;3.00;;;;;;;;;;5056629;28;20179;-79
2023/04/07 08:47:10;;;;;;;3.27;2.50;;;;;;;;;;5063243;28;20187;-80
2023/04/07 08:49:36;;;;;;;4.93;3.37;;;;;;;;;;5078226;28;20233;-80
2023/04/07 08:52:03;;;;;;;2.93;2.57;;;;;;;;;;5051058;28;20181;-80
2023/04/07 08:54:28;;;;;;;3.07;2.47;;;;;;;;;;5082065;28;20187;-79
2023/04/07 08:56:54;;;;;;;4.20;2.47;;;;;;;;;;5039927;28;20199;-79
2023/04/07 08:59:25;;;;;;;4.37;2.60;;;;;;;;;;5052780;28;20185;-80
2023/04/07 09:01:50;;;;;;;3.40;3.10;;;;;;;;;;5044609;28;20178;-79
2023/04/07 09:04:16;;;;;;;3.03;2.60;;;;;;;;;;5051457;28;20171;-80
2023/04/07 09:06:42;;;;;;;4.33;2.80;;;;;;;;;;5050521;28;20176;-80
2023/04/07 09:09:08;;;;;;;3.03;2.60;;;;;;;;;;5049846;28;20206;-80
2023/04/07 09:11:34;;;;;;;3.50;3.20;;;;;;;;;;5067622;28;20241;-80
2023/04/07 09:14:00;;;;;;;4.20;3.00;;;;;;;;;;5075997;28;20179;-80
2023/04/07 09:16:27;;;;;;;6.27;3.87;;;;;;;;;;5045338;28;20189;-79
2023/04/07 09:18:52;;;;;;;5.90;3.20;;;;;;;;;;5060913;28;20190;-80
2023/04/07 09:21:18;;;;;;;3.27;2.80;;;;;;;;;;5051085;28;20261;-80
2023/04/07 09:23:44;;;;;;;5.47;3.67;;;;;;;;;;5059282;28;20211;-80
2023/04/07 09:26:23;;;;;;;7.20;4.23;;;;;;;;;;5065277;28;20175;-80
2023/04/07 09:28:50;;;;;;;4.27;3.87;;;;;;;;;;5037968;28;20188;-80
2023/04/07 09:31:16;;;;;;;6.47;4.00;;;;;;;;;;5045443;28;20177;-80
2023/04/07 09:33:41;;;;;;;5.17;4.07;;;;;;;;;;5042863;28;20195;-80
2023/04/07 09:36:07;;;;;;;4.53;4.13;;;;;;;;;;5048858;28;20191;-80
2023/04/07 09:38:39;;;;;;;4.67;3.47;;;;;;;;;;5081603;28;20194;-80
2023/04/07 09:41:09;;;;;;;4.77;3.40;;;;;;;;;;5073965;28;20267;-81
2023/04/07 09:43:43;;;;;;;5.03;4.23;;;;;;;;;;5054250;28;20202;-80
2023/04/07 09:46:18;;;;;;;6.30;3.87;;;;;;;;;;5047562;28;20265;-81
2023/04/07 09:48:44;;;;;;;3.83;3.10;;;;;;;;;;5050392;28;20185;-80
2023/04/07 09:51:10;;;;;;;4.10;2.80;;;;;;;;;;5068503;28;20292;-81
2023/04/07 09:53:45;;;;;;;2.93;2.63;;;;;;;;;;5049970;28;20171;-80
2023/04/07 09:56:10;;;;;;;8.10;3.17;;;;;;;;;;5044878;28;20187;-80
2023/04/07 09:58:39;;;;;;;3.40;2.83;;;;;;;;;;5049149;28;20196;-80
2023/04/07 10:01:07;;;;;;;3.93;3.20;;;;;;;;;;5052078;28;20262;-80
2023/04/07 10:03:32;;;;;;;3.10;2.80;;;;;;;;;;5072362;28;20173;-80
2023/04/07 10:05:59;;;;;;;3.00;2.70;;;;;;;;;;5081191;28;20183;-80
2023/04/07 10:08:24;;;;;;;4.00;3.43;;;;;;;;;;5044808;28;20189;-80
2023/04/07 10:10:50;;;;;;;2.87;2.50;;;;;;;;;;5043730;28;20173;-81
2023/04/07 10:13:15;;;;;;;3.67;2.83;;;;;;;;;;5063117;28;20181;-80
2023/04/07 10:15:41;;;;;;;4.40;2.80;;;;;;;;;;5042331;28;20184;-80
2023/04/07 10:18:07;;;;;;;2.60;2.40;;;;;;;;;;5049354;28;20197;-80
2023/04/07 10:20:33;;;;;;;3.70;2.43;;;;;;;;;;5065588;28;20192;-80
2023/04/07 10:23:05;;;;;;;4.83;2.60;;;;;;;;;;5048422;28;20192;-80
2023/04/07 10:25:31;;;;;;;3.50;2.60;;;;;;;;;;5046414;28;20183;-80
2023/04/07 10:27:59;;;;;;;5.57;2.80;;;;;;;;;;5045311;28;20193;-81
2023/04/07 10:30:26;;;;;;;3.33;2.83;;;;;;;;;;5040753;28;20186;-81
2023/04/07 10:32:52;;;;;;;3.97;3.23;;;;;;;;;;5062188;28;20191;-80
2023/04/07 10:35:17;;;;;;;4.03;2.60;;;;;;;;;;5039403;28;20180;-80
2023/04/07 10:38:01;;;;;;;3.33;2.70;;;;;;;;;;5062909;28;20208;-80
2023/04/07 10:40:27;;;;;;;4.67;2.80;;;;;;;;;;5046308;28;20173;-80
2023/04/07 10:42:52;;;;;;;2.80;2.60;;;;;;;;;;5073912;28;20313;-80
2023/04/07 10:45:37;;;;;;;4.53;2.27;;;;;;;;;;5046195;28;20175;-80
2023/04/07 10:48:02;;;;;;;3.77;2.80;;;;;;;;;;5045651;28;20254;-80
2023/04/07 10:50:28;;;;;;;4.00;2.87;;;;;;;;;;5046068;28;20228;-81
2023/04/07 10:53:09;;;;;;;4.90;2.60;;;;;;;;;;5042279;28;20215;-81
2023/04/07 10:55:39;;;;;;;7.10;3.03;;;;;;;;;;5074252;28;20257;-80
2023/04/07 10:58:15;;;;;;;4.80;3.10;;;;;;;;;;5079146;28;20213;-80
2023/04/07 11:00:40;;;;;;;3.70;3.40;;;;;;;;;;5075377;28;20206;-80
2023/04/07 11:03:11;;;;;;;5.50;3.10;;;;;;;;;;5064327;28;20185;-80
2023/04/07 11:05:37;;;;;;;4.77;2.97;;;;;;;;;;5044235;28;20172;-80
2023/04/07 11:08:05;;;;;;;5.07;2.87;;;;;;;;;;5047392;28;20185;-80
2023/04/07 11:10:30;;;;;;;2.87;2.57;;;;;;;;;;5046628;28;20239;-80
2023/04/07 11:13:03;;;;;;;3.87;2.73;;;;;;;;;;5048283;28;20213;-81
2023/04/07 11:15:28;;;;;;;4.30;2.70;;;;;;;;;;5047632;28;20181;-80
2023/04/07 11:18:12;;;;;;;3.60;2.57;;;;;;;;;;5046294;28;20204;-81
2023/04/07 11:20:40;;;;;;;3.37;2.83;;;;;;;;;;5045680;28;20171;-81
2023/04/07 11:23:05;;;;;;;3.00;2.70;;;;;;;;;;5047209;28;20174;-80
2023/04/07 11:25:32;;;;;;;3.73;2.50;;;;;;;;;;5042337;28;20180;-81
2023/04/07 11:27:58;;;;;;;4.80;2.97;;;;;;;;;;5046911;28;20181;-81
2023/04/07 11:30:23;;;;;;;3.63;3.00;;;;;;;;;;5048809;28;20182;-81
2023/04/07 11:32:49;;;;;;;5.23;2.80;;;;;;;;;;5063971;28;20323;-81
2023/04/07 11:35:15;;;;;;;5.20;3.00;;;;;;;;;;5042028;28;20213;-80
2023/04/07 11:37:41;;;;;;;4.53;3.00;;;;;;;;;;5048962;28;20237;-80
2023/04/07 11:40:07;;;;;;;4.20;3.60;;;;;;;;;;5051812;28;20231;-80
2023/04/07 11:42:33;;;;;;;4.40;3.10;;;;;;;;;;5046800;28;20288;-81
2023/04/07 11:44:58;;;;;;;6.17;3.27;;;;;;;;;;5044038;28;20181;-81
2023/04/07 11:47:36;;;;;;;4.00;3.10;;;;;;;;;;5045282;28;20181;-80
2023/04/07 11:50:02;;;;;;;3.47;2.80;;;;;;;;;;5073340;28;20241;-80
2023/04/07 11:52:27;;;;;;;2.90;1.70;;;;;;;;;;5047024;28;20179;-81
2023/04/07 11:54:52;;;;;;;6.30;2.63;;;;;;;;;;5048834;28;20174;-80
2023/04/07 11:57:27;;;;;;;4.43;2.30;;;;;;;;;;5048631;28;20225;-81
2023/04/07 12:00:11;;;;;;;4.47;3.03;;;;;;;;;;5074882;28;20179;-80
2023/04/07 12:02:37;;;;;;;3.83;2.60;;;;;;;;;;5071862;28;20186;-81
2023/04/07 12:05:02;;;;;;;5.77;2.90;;;;;;;;;;5045883;28;20188;-81
2023/04/07 12:07:27;;;;;;;5.83;2.80;;;;;;;;;;5074558;28;20259;-80
2023/04/07 12:09:53;;;;;;;5.20;3.40;;;;;;;;;;5047719;28;20471;-81
2023/04/07 12:12:26;;;;;;;3.30;3.00;;;;;;;;;;5059262;28;20247;-81
2023/04/07 12:14:51;;;;;;;3.83;3.20;;;;;;;;;;5047395;28;20188;-81
2023/04/07 12:17:24;;;;;;;3.83;3.37;;;;;;;;;;5063941;28;20213;-81
2023/04/07 12:19:49;;;;;;;4.30;2.70;;;;;;;;;;5073589;28;20188;-80
2023/04/07 12:22:14;;;;;;;3.80;2.50;;;;;;;;;;5081430;28;20263;-80
2023/04/07 12:24:39;;;;;;;3.27;2.47;;;;;;;;;;5061184;28;20236;-80
2023/04/07 12:27:05;;;;;;;5.73;3.10;;;;;;;;;;5054271;28;20190;-80
2023/04/07 12:29:30;;;;;;;5.47;2.53;;;;;;;;;;5049417;28;20269;-80
2023/04/07 12:31:55;;;;;;;2.83;2.60;;;;;;;;;;5046233;28;20189;-81
2023/04/07 12:34:21;;;;;;;3.27;2.33;;;;;;;;;;5051402;28;20181;-80
2023/04/07 12:36:46;;;;;;;4.40;2.07;;;;;;;;;;5070384;28;20190;-80
2023/04/07 12:39:11;;;;;;;2.63;2.23;;;;;;;;;;5048513;28;20178;-80
2023/04/07 12:41:37;;;;;;;3.50;2.20;;;;;;;;;;5080985;28;20174;-80
2023/04/07 12:44:02;;;;;;;2.97;2.47;;;;;;;;;;5049277;28;20202;-80
2023/04/07 12:46:28;;;;;;;2.23;2.03;;;;;;;;;;5045271;28;20171;-80
2023/04/07 12:48:53;;;;;;;5.07;2.37;;;;;;;;;;5067275;28;20350;-81
2023/04/07 12:51:18;;;;;;;4.37;2.03;;;;;;;;;;5047943;28;20225;-81
2023/04/07 12:53:44;;;;;;;3.30;2.47;;;;;;;;;;5048958;28;20189;-80
2023/04/07 12:56:09;;;;;;;3.47;1.87;;;;;;;;;;5047054;28;20213;-80
2023/04/07 12:58:35;;;;;;;2.40;2.20;;;;;;;;;;5050880;28;20200;-80
2023/04/07 13:01:00;;;;;;;2.23;1.97;;;;;;;;;;5062016;28;20179;-80
2023/04/07 13:03:25;;;;;;;2.50;1.90;;;;;;;;;;5055622;28;20196;-80
2023/04/07 13:05:53;;;;;;;2.57;1.90;;;;;;;;;;5046904;28;20170;-80
2023/04/07 13:08:18;;;;;;;3.63;2.40;;;;;;;;;;5049887;28;20178;-80
2023/04/07 13:10:43;;;;;;;4.07;2.17;;;;;;;;;;5066933;28;20183;-80
2023/04/07 13:13:09;;;;;;;3.63;1.93;;;;;;;;;;5047696;28;20201;-80
2023/04/07 13:15:34;;;;;;;2.80;1.90;;;;;;;;;;5079405;28;20210;-80
2023/04/07 13:18:02;;;;;;;1.70;1.60;;;;;;;;;;5050877;28;20218;-80
2023/04/07 13:20:29;;;;;;;4.87;2.03;;;;;;;;;;5039417;28;20174;-80
2023/04/07 13:22:54;;;;;;;2.10;1.77;;;;;;;;;;5050156;28;20183;-80
2023/04/07 13:25:20;;;;;;;3.60;1.87;;;;;;;;;;5042786;28;20190;-80
2023/04/07 13:27:45;;;;;;;2.17;1.70;;;;;;;;;;5047722;28;20173;-80
2023/04/07 13:30:11;;;;;;;4.17;2.00;;;;;;;;;;5074158;28;20190;-80
2023/04/07 13:32:36;;;;;;;3.97;2.00;;;;;;;;;;5081381;28;20182;-81
2023/04/07 13:35:01;;;;;;;4.37;2.60;;;;;;;;;;5048210;28;20202;-81
2023/04/07 13:37:26;;;;;;;3.47;2.50;;;;;;;;;;5048814;28;20205;-80
2023/04/07 13:39:52;;;;;;;7.03;3.57;;;;;;;;;;5078010;28;20186;-80
2023/04/07 13:42:19;;;;;;;5.13;3.57;;;;;;;;;;5047871;28;20220;-80
2023/04/07 13:44:46;;;;;;;5.97;3.43;;;;;;;;;;5048065;28;20271;-80
2023/04/07 13:47:13;;;;;;;5.40;4.43;;;;;;;;;;5042864;28;20194;-80
2023/04/07 13:49:38;;;;;;;6.60;3.83;;;;;;;;;;5044815;28;20323;-80
2023/04/07 13:52:04;;;;;;;5.13;3.83;;;;;;;;;;5044593;28;20273;-80
2023/04/07 13:54:29;;;;;;;4.90;3.97;;;;;;;;;;5043310;28;20177;-80
2023/04/07 13:56:55;;;;;;;4.33;3.93;;;;;;;;;;5049540;28;20197;-80
2023/04/07 13:59:20;;;;;;;4.00;3.50;;;;;;;;;;5047738;28;20188;-80
2023/04/07 14:01:45;;;;;;;4.30;3.73;;;;;;;;;;5047029;28;20303;-80
2023/04/07 14:04:11;;;;;;;5.13;3.70;;;;;;;;;;5062056;28;20179;-80
2023/04/07 14:06:36;;;;;;;6.57;3.70;;;;;;;;;;5049088;28;20184;-80
2023/04/07 14:09:02;;;;;;;4.57;4.00;;;;;;;;;;5051971;28;20260;-80
2023/04/07 14:11:28;;;;;;;4.00;3.60;;;;;;;;;;5049270;28;20181;-80
2023/04/07 14:13:54;;;;;;;7.07;5.10;;;;;;;;;;5061950;28;20194;-79
2023/04/07 14:16:22;;;;;;;5.80;4.20;;;;;;;;;;5048500;28;20174;-79
2023/04/07 14:18:48;;;;;;;4.77;4.13;;;;;;;;;;5048454;28;20201;-79
2023/04/07 14:21:13;;;;;;;5.10;3.80;;;;;;;;;;5048255;28;20201;-79
2023/04/07 14:23:39;;;;;;;7.80;4.27;;;;;;;;;;5065946;28;20165;-79
2023/04/07 14:26:04;;;;;;;6.03;3.60;;;;;;;;;;5041248;28;20215;-79
2023/04/07 14:28:29;;;;;;;6.43;4.13;;;;;;;;;;5048625;28;20177;-79
2023/04/07 14:30:54;;;;;;;4.60;3.90;;;;;;;;;;5046727;28;20173;-79
2023/04/07 14:33:20;;;;;;;4.70;4.30;;;;;;;;;;5050022;28;20260;-79
2023/04/07 14:35:46;;;;;;;5.57;4.20;;;;;;;;;;5044172;28;20181;-79